createdAt,value
2019-02-05T00:00:37.656Z,10.03
2019-02-05T00:03:06.846Z,11.17
2019-02-05T00:05:35.261Z,12.70
2019-02-05T00:08:03.608Z,10.60
2019-02-05T00:10:31.915Z,10.77
2019-02-05T00:13:00.410Z,10.83
2019-02-05T00:15:29.161Z,10.87
2019-02-05T00:17:57.683Z,11.77
2019-02-05T00:20:26.021Z,9.83
2019-02-05T00:22:54.420Z,10.00
2019-02-05T00:25:22.795Z,11.53
2019-02-05T00:27:51.187Z,10.43
2019-02-05T00:30:19.567Z,11.47
2019-02-05T00:32:48.271Z,12.57
2019-02-05T00:35:16.647Z,12.83
2019-02-05T00:37:45.016Z,11.60
2019-02-05T00:40:14.716Z,10.50
2019-02-05T00:42:43.125Z,10.60
2019-02-05T00:45:14.503Z,11.30
2019-02-05T00:47:43.083Z,10.07
2019-02-05T00:50:13.661Z,9.83
2019-02-05T00:52:42.067Z,11.13
2019-02-05T00:55:15.183Z,11.03
2019-02-05T00:57:43.552Z,11.43
2019-02-05T01:00:17.777Z,10.23
2019-02-05T01:02:46.133Z,10.17
2019-02-05T01:05:14.595Z,11.50
2019-02-05T01:07:43.027Z,10.90
2019-02-05T01:10:11.473Z,11.20
2019-02-05T01:12:39.846Z,11.63
2019-02-05T01:15:14.317Z,11.30
2019-02-05T01:17:42.707Z,9.53
2019-02-05T01:20:15.985Z,9.97
2019-02-05T01:22:44.339Z,10.90
2019-02-05T01:25:12.718Z,11.33
2019-02-05T01:27:41.083Z,11.20
2019-02-05T01:30:12.955Z,10.40
2019-02-05T01:32:41.346Z,11.07
2019-02-05T01:35:09.756Z,10.77
2019-02-05T01:37:38.512Z,11.67
2019-02-05T01:40:24.030Z,13.23
2019-02-05T01:42:52.391Z,12.67
2019-02-05T01:45:22.022Z,11.93
2019-02-05T01:47:50.404Z,12.13
2019-02-05T01:50:21.317Z,12.67
2019-02-05T01:52:49.697Z,13.47
2019-02-05T01:55:18.477Z,10.83
2019-02-05T01:57:47.040Z,12.17
2019-02-05T02:00:21.670Z,11.47
2019-02-05T02:02:50.047Z,13.37
2019-02-05T02:05:18.495Z,13.67
2019-02-05T02:07:46.877Z,12.27
2019-02-05T02:10:18.406Z,10.47
2019-02-05T02:12:46.784Z,11.87
2019-02-05T02:15:15.162Z,12.80
2019-02-05T02:17:43.588Z,11.67
2019-02-05T02:20:16.894Z,12.03
2019-02-05T02:22:45.379Z,12.60
2019-02-05T02:25:14.459Z,12.43
2019-02-05T02:27:43.061Z,12.50
2019-02-05T02:30:20.538Z,12.37
2019-02-05T02:32:48.905Z,11.10
2019-02-05T02:35:17.289Z,13.70
2019-02-05T02:37:45.670Z,12.13
2019-02-05T02:40:14.263Z,10.37
2019-02-05T02:42:42.648Z,10.10
2019-02-05T02:45:13.052Z,11.50
2019-02-05T02:47:41.426Z,11.47
2019-02-05T02:50:12.829Z,10.83
2019-02-05T02:52:41.208Z,10.27
2019-02-05T02:55:09.577Z,11.17
2019-02-05T02:57:37.936Z,9.73
2019-02-05T03:00:09.568Z,10.33
2019-02-05T03:03:07.082Z,10.97
2019-02-05T03:05:35.450Z,13.87
2019-02-05T03:08:03.828Z,13.47
2019-02-05T03:10:32.202Z,11.73
2019-02-05T03:13:00.570Z,9.90
2019-02-05T03:15:28.954Z,11.80
2019-02-05T03:17:57.340Z,12.33
2019-02-05T03:20:25.712Z,12.33
2019-02-05T03:22:54.474Z,11.22
2019-02-05T03:25:25.777Z,10.63
2019-02-05T03:27:54.463Z,9.90
2019-02-05T03:30:24.633Z,13.33
2019-02-05T03:32:54.707Z,13.67
2019-02-05T03:35:23.085Z,11.17
2019-02-05T03:37:51.497Z,10.67
2019-02-05T03:40:29.121Z,12.63
2019-02-05T03:42:58.924Z,11.85
2019-02-05T03:45:27.814Z,14.27
2019-02-05T03:47:59.645Z,10.37
2019-02-05T03:50:28.022Z,10.73
2019-02-05T03:52:59.696Z,11.90
2019-02-05T03:55:40.117Z,11.90
2019-02-05T03:58:17.886Z,13.30
2019-02-05T04:00:52.604Z,10.83
2019-02-05T04:03:27.621Z,13.60
2019-02-05T04:06:21.339Z,11.03
2019-02-05T04:09:01.976Z,11.38
2019-02-05T04:11:39.644Z,11.50
2019-02-05T04:14:19.857Z,12.68
2019-02-05T04:16:57.484Z,11.30
2019-02-05T04:19:41.695Z,14.43
2019-02-05T04:22:33.166Z,14.58
2019-02-05T04:25:24.567Z,14.35
2019-02-05T04:28:05.199Z,14.43
2019-02-05T04:30:42.700Z,14.95
2019-02-05T04:33:23.348Z,17.52
2019-02-05T04:36:03.973Z,19.10
2019-02-05T04:38:56.055Z,16.52
2019-02-05T04:41:39.709Z,18.23
2019-02-05T04:44:35.112Z,16.17
2019-02-05T04:47:15.911Z,18.57
2019-02-05T04:49:47.626Z,13.40
2019-02-05T04:52:21.767Z,16.35
2019-02-05T04:54:59.214Z,18.85
2019-02-05T04:57:57.354Z,17.27
2019-02-05T05:00:37.662Z,17.70
2019-02-05T05:03:18.099Z,16.07
2019-02-05T05:06:07.819Z,15.83
2019-02-05T05:08:54.234Z,16.60
2019-02-05T05:11:22.628Z,16.67
2019-02-05T05:13:51.026Z,17.67
2019-02-05T05:16:19.424Z,16.57
2019-02-05T05:18:47.811Z,18.12
2019-02-05T05:21:16.214Z,16.97
2019-02-05T05:23:45.196Z,13.72
2019-02-05T05:26:14.076Z,17.52
2019-02-05T05:28:43.299Z,16.27
2019-02-05T05:31:11.683Z,20.02
2019-02-05T05:33:40.064Z,15.63
2019-02-05T05:36:08.439Z,16.37
2019-02-05T05:38:36.845Z,12.85
2019-02-05T05:41:05.231Z,14.15
2019-02-05T05:43:33.937Z,15.72
2019-02-05T05:46:02.317Z,13.13
2019-02-05T05:48:30.728Z,15.18
2019-02-05T05:50:59.092Z,16.35
2019-02-05T05:53:27.497Z,17.85
2019-02-05T05:55:55.867Z,13.30
2019-02-05T05:58:24.246Z,16.80
2019-02-05T06:00:53.018Z,16.37
2019-02-05T06:03:21.400Z,15.72
2019-02-05T06:05:49.773Z,14.15
2019-02-05T06:08:18.152Z,15.20
2019-02-05T06:10:46.530Z,16.70
2019-02-05T06:13:14.940Z,15.75
2019-02-05T06:15:43.304Z,15.90
2019-02-05T06:18:11.875Z,16.25
2019-02-05T06:20:40.274Z,17.27
2019-02-05T06:23:08.641Z,16.60
2019-02-05T06:25:37.050Z,18.02
2019-02-05T06:28:05.463Z,15.15
2019-02-05T06:30:33.859Z,15.23
2019-02-05T06:33:02.231Z,16.05
2019-02-05T06:35:30.946Z,17.25
2019-02-05T06:37:59.344Z,15.98
2019-02-05T06:40:28.281Z,16.55
2019-02-05T06:42:56.641Z,18.23
2019-02-05T06:45:25.031Z,15.03
2019-02-05T06:47:53.402Z,14.95
2019-02-05T06:50:21.782Z,18.32
2019-02-05T06:52:50.373Z,15.83
2019-02-05T06:55:18.730Z,15.03
2019-02-05T06:57:47.116Z,13.60
2019-02-05T07:00:21.137Z,13.75
2019-02-05T07:02:49.519Z,16.00
2019-02-05T07:05:17.895Z,13.50
2019-02-05T07:07:46.296Z,16.70
2019-02-05T07:10:20.761Z,14.85
2019-02-05T07:12:49.147Z,17.40
2019-02-05T07:15:17.530Z,16.75
2019-02-05T07:17:49.650Z,18.40
2019-02-05T07:20:16.763Z,17.73
2019-02-05T07:22:45.145Z,17.17
2019-02-05T07:25:18.792Z,19.95
2019-02-05T07:27:47.244Z,17.62
2019-02-05T07:30:23.940Z,16.32
2019-02-05T07:32:52.342Z,17.45
2019-02-05T07:35:20.687Z,16.05
2019-02-05T07:37:49.143Z,18.20
2019-02-05T07:40:19.582Z,18.73
2019-02-05T07:42:47.955Z,18.00
2019-02-05T07:45:18.514Z,21.12
2019-02-05T07:47:46.882Z,20.32
2019-02-05T07:50:20.389Z,17.27
2019-02-05T07:52:48.760Z,17.35
2019-02-05T07:55:17.139Z,19.75
2019-02-05T07:57:45.903Z,16.25
2019-02-05T08:00:16.920Z,16.70
2019-02-05T08:02:45.363Z,16.62
2019-02-05T08:05:16.994Z,15.45
2019-02-05T08:07:45.394Z,15.20
2019-02-05T08:10:17.104Z,13.38
2019-02-05T08:12:45.789Z,15.78
2019-02-05T08:15:17.116Z,18.30
2019-02-05T08:17:45.577Z,12.78
2019-02-05T08:20:13.955Z,16.87
2019-02-05T08:22:42.402Z,16.50
2019-02-05T08:25:13.280Z,14.05
2019-02-05T08:27:41.661Z,16.87
2019-02-05T08:30:25.140Z,17.85
2019-02-05T08:32:53.534Z,14.18
2019-02-05T08:35:21.911Z,13.20
2019-02-05T08:37:50.302Z,18.35
2019-02-05T08:40:23.412Z,16.90
2019-02-05T08:42:51.821Z,19.00
2019-02-05T08:45:25.902Z,19.25
2019-02-05T08:47:54.277Z,18.37
2019-02-05T08:50:27.323Z,15.53
2019-02-05T08:52:55.289Z,19.67
2019-02-05T08:55:23.658Z,15.08
2019-02-05T08:57:54.550Z,15.28
2019-02-05T09:00:31.147Z,16.40
2019-02-05T09:02:59.542Z,15.88
2019-02-05T09:05:27.927Z,16.73
2019-02-05T09:07:56.301Z,14.07
2019-02-05T09:10:30.206Z,16.35
2019-02-05T09:12:58.571Z,13.10
2019-02-05T09:15:29.641Z,15.43
2019-02-05T09:17:57.286Z,14.93
2019-02-05T09:20:25.673Z,18.57
2019-02-05T09:22:54.129Z,16.17
2019-02-05T09:25:22.500Z,18.35
2019-02-05T09:27:50.950Z,15.25
2019-02-05T09:30:27.274Z,16.62
2019-02-05T09:32:57.701Z,16.37
2019-02-05T09:35:26.113Z,15.80
2019-02-05T09:37:57.578Z,12.85
2019-02-05T09:40:26.665Z,14.25
2019-02-05T09:42:55.041Z,16.25
2019-02-05T09:45:24.038Z,17.25
2019-02-05T09:47:52.824Z,17.98
2019-02-05T09:50:21.218Z,16.15
2019-02-05T09:52:49.627Z,14.98
2019-02-05T09:55:19.542Z,15.88
2019-02-05T09:57:47.923Z,18.57
2019-02-05T10:00:27.904Z,18.02
2019-02-05T10:02:56.709Z,17.82
2019-02-05T10:05:27.886Z,18.90
2019-02-05T10:07:56.289Z,15.78
2019-02-05T10:10:24.689Z,16.93
2019-02-05T10:12:53.134Z,16.55
2019-02-05T10:15:24.361Z,16.77
2019-02-05T10:17:52.747Z,14.83
2019-02-05T10:20:23.062Z,16.97
2019-02-05T10:22:51.611Z,14.50
2019-02-05T10:25:19.998Z,15.98
2019-02-05T10:27:48.380Z,15.97
2019-02-05T10:30:25.170Z,15.20
2019-02-05T10:32:53.659Z,15.98
2019-02-05T10:35:22.443Z,16.03
2019-02-05T10:37:50.952Z,19.20
2019-02-05T10:40:19.777Z,16.65
2019-02-05T10:42:48.133Z,16.30
2019-02-05T10:45:21.431Z,19.20
2019-02-05T10:47:51.781Z,15.37
2019-02-05T10:50:20.273Z,21.17
2019-02-05T10:52:48.745Z,17.70
2019-02-05T10:55:18.967Z,19.20
2019-02-05T10:57:48.879Z,18.77
2019-02-05T11:00:27.857Z,16.53
2019-02-05T11:02:57.298Z,15.95
2019-02-05T11:05:27.349Z,23.15
2019-02-05T11:07:55.737Z,20.70
2019-02-05T11:10:24.257Z,16.40
2019-02-05T11:12:52.631Z,17.60
2019-02-05T11:15:23.461Z,19.43
2019-02-05T11:17:51.840Z,14.93
2019-02-05T11:20:22.365Z,14.43
2019-02-05T11:22:50.983Z,17.13
2019-02-05T11:25:19.347Z,16.73
2019-02-05T11:27:47.721Z,16.33
2019-02-05T11:30:25.008Z,16.87
2019-02-05T11:32:53.388Z,16.00
2019-02-05T11:35:21.841Z,16.90
2019-02-05T11:37:50.533Z,14.70
2019-02-05T11:40:24.576Z,15.60
2019-02-05T11:42:52.998Z,18.03
2019-02-05T11:45:21.367Z,18.70
2019-02-05T11:47:50.032Z,15.07
2019-02-05T11:50:18.637Z,17.27
2019-02-05T11:52:47.014Z,16.83
2019-02-05T11:55:18.036Z,17.67
2019-02-05T11:57:46.403Z,16.10
2019-02-05T12:00:18.584Z,17.47
2019-02-05T12:02:48.951Z,17.20
2019-02-05T12:05:16.989Z,18.03
2019-02-05T12:07:45.370Z,16.53
2019-02-05T12:10:15.308Z,17.27
2019-02-05T12:12:43.682Z,14.57
2019-02-05T12:15:15.324Z,14.73
2019-02-05T12:17:43.707Z,17.30
2019-02-05T12:20:19.780Z,16.87
2019-02-05T12:22:49.395Z,18.83
2019-02-05T12:25:20.637Z,15.70
2019-02-05T12:27:49.029Z,16.93
2019-02-05T12:30:44.563Z,15.37
2019-02-05T12:33:05.516Z,18.50
2019-02-05T12:35:33.918Z,16.67
2019-02-05T12:38:02.683Z,17.80
2019-02-05T12:40:31.062Z,15.00
2019-02-05T12:42:59.440Z,17.67
2019-02-05T12:45:35.272Z,19.93
2019-02-05T12:48:03.717Z,17.47
2019-02-05T12:50:39.872Z,16.47
2019-02-05T12:53:08.226Z,17.80
2019-02-05T12:55:36.612Z,13.83
2019-02-05T12:58:05.228Z,19.30
2019-02-05T13:00:42.194Z,18.20
2019-02-05T13:03:11.312Z,17.67
2019-02-05T13:05:39.962Z,15.40
2019-02-05T13:08:08.352Z,16.13
2019-02-05T13:10:39.366Z,19.43
2019-02-05T13:13:08.096Z,19.87
2019-02-05T13:15:36.481Z,20.17
2019-02-05T13:18:05.536Z,17.17
2019-02-05T13:20:33.892Z,18.27
2019-02-05T13:23:03.059Z,17.30
2019-02-05T13:25:32.626Z,16.73
2019-02-05T13:28:01.022Z,21.67
2019-02-05T13:30:33.696Z,17.83
2019-02-05T13:33:02.064Z,17.53
2019-02-05T13:35:30.878Z,13.83
2019-02-05T13:37:59.370Z,16.60
2019-02-05T13:40:28.494Z,16.73
2019-02-05T13:42:57.125Z,17.77
2019-02-05T13:45:28.306Z,14.37
2019-02-05T13:47:56.708Z,18.73
2019-02-05T13:50:33.065Z,16.20
2019-02-05T13:52:57.951Z,16.17
2019-02-05T13:55:34.939Z,16.53
2019-02-05T13:58:03.387Z,16.43
2019-02-05T14:00:39.381Z,18.23
2019-02-05T14:03:09.133Z,15.30
2019-02-05T14:05:37.630Z,15.37
2019-02-05T14:08:06.082Z,15.17
2019-02-05T14:10:42.100Z,16.93
2019-02-05T14:13:10.465Z,17.73
2019-02-05T14:15:41.464Z,15.47
2019-02-05T14:18:10.586Z,21.57
2019-02-05T14:20:39.056Z,16.87
2019-02-05T14:23:07.498Z,16.40
2019-02-05T14:25:35.867Z,18.03
2019-02-05T14:28:04.378Z,16.27
2019-02-05T14:30:38.026Z,19.27
2019-02-05T14:33:06.682Z,17.87
2019-02-05T14:35:35.073Z,13.00
2019-02-05T14:38:03.524Z,17.27
2019-02-05T14:40:31.899Z,18.07
2019-02-05T14:43:00.243Z,14.43
2019-02-05T14:45:28.576Z,17.93
2019-02-05T14:47:57.274Z,18.43
2019-02-05T14:50:28.362Z,16.33
2019-02-05T14:52:56.735Z,16.90
2019-02-05T14:55:25.107Z,16.50
2019-02-05T14:57:53.483Z,15.23
2019-02-05T15:00:29.970Z,16.73
2019-02-05T15:03:01.813Z,16.70
2019-02-05T15:05:28.840Z,17.87
2019-02-05T15:07:57.315Z,17.23
2019-02-05T15:10:25.671Z,16.03
2019-02-05T15:12:54.123Z,17.73
2019-02-05T15:15:24.675Z,17.67
2019-02-05T15:17:53.273Z,18.60
2019-02-05T15:20:27.413Z,16.03
2019-02-05T15:22:55.757Z,15.77
2019-02-05T15:25:24.145Z,17.00
2019-02-05T15:27:52.639Z,13.47
2019-02-05T15:30:33.006Z,15.13
2019-02-05T15:33:15.311Z,17.60
2019-02-05T15:35:45.331Z,13.33
2019-02-05T15:38:13.707Z,17.07
2019-02-05T15:40:42.093Z,15.57
2019-02-05T15:43:10.487Z,14.80
2019-02-05T15:45:38.844Z,16.37
2019-02-05T15:48:07.203Z,15.53
2019-02-05T15:50:35.579Z,15.80
2019-02-05T15:53:03.939Z,16.53
2019-02-05T15:55:32.266Z,16.87
2019-02-05T15:58:00.940Z,15.20
2019-02-05T16:00:29.382Z,17.03
2019-02-05T16:02:57.772Z,14.90
2019-02-05T16:05:26.164Z,15.53
2019-02-05T16:07:54.558Z,15.80
2019-02-05T16:10:24.657Z,16.70
2019-02-05T16:12:53.065Z,16.13
2019-02-05T16:15:21.438Z,16.93
2019-02-05T16:17:49.806Z,15.83
2019-02-05T16:20:19.318Z,17.90
2019-02-05T16:22:47.869Z,17.10
2019-02-05T16:25:16.255Z,17.03
2019-02-05T16:27:44.641Z,17.47
2019-02-05T16:30:18.602Z,16.37
2019-02-05T16:32:47.092Z,14.87
2019-02-05T16:35:15.444Z,16.67
2019-02-05T16:37:44.013Z,13.53
2019-02-05T16:40:15.395Z,18.10
2019-02-05T16:42:43.774Z,16.00
2019-02-05T16:45:15.501Z,16.10
2019-02-05T16:47:43.896Z,15.93
2019-02-05T16:50:21.577Z,17.30
2019-02-05T16:52:50.354Z,17.60
2019-02-05T16:55:18.720Z,16.70
2019-02-05T16:57:47.424Z,16.67
2019-02-05T17:00:24.209Z,15.57
2019-02-05T17:02:52.582Z,15.00
2019-02-05T17:05:21.798Z,15.83
2019-02-05T17:07:50.177Z,19.63
2019-02-05T17:10:23.263Z,17.97
2019-02-05T17:12:51.695Z,17.97
2019-02-05T17:15:20.735Z,16.57
2019-02-05T17:17:49.109Z,18.30
2019-02-05T17:20:20.032Z,17.70
2019-02-05T17:22:48.407Z,18.23
2019-02-05T17:25:21.109Z,18.00
2019-02-05T17:27:49.507Z,19.53
2019-02-05T17:30:23.301Z,18.17
2019-02-05T17:32:51.657Z,18.40
2019-02-05T17:35:20.072Z,20.00
2019-02-05T17:37:48.455Z,18.40
2019-02-05T17:40:19.458Z,17.73
2019-02-05T17:42:48.179Z,20.57
2019-02-05T17:45:36.258Z,18.20
2019-02-05T17:48:07.778Z,19.33
2019-02-05T17:50:36.143Z,18.73
2019-02-05T17:53:04.553Z,20.30
2019-02-05T17:55:32.958Z,19.77
2019-02-05T17:58:01.312Z,18.10
2019-02-05T18:00:33.832Z,18.67
2019-02-05T18:03:02.225Z,19.13
2019-02-05T18:05:30.618Z,21.30
2019-02-05T18:07:59.311Z,21.03
2019-02-05T18:10:28.215Z,20.57
2019-02-05T18:12:56.600Z,21.03
2019-02-05T18:15:27.813Z,19.57
2019-02-05T18:17:56.184Z,19.00
2019-02-05T18:20:24.607Z,19.73
2019-02-05T18:22:53.312Z,19.13
2019-02-05T18:25:21.694Z,20.80
2019-02-05T18:27:50.066Z,21.13
2019-02-05T18:30:27.758Z,21.47
2019-02-05T18:33:03.294Z,24.07
2019-02-05T18:35:26.193Z,19.27
2019-02-05T18:37:54.651Z,19.10
2019-02-05T18:40:25.608Z,21.00
2019-02-05T18:42:54.068Z,16.13
2019-02-05T18:45:22.442Z,21.20
2019-02-05T18:47:50.998Z,20.77
2019-02-05T18:50:26.674Z,18.30
2019-02-05T18:52:55.229Z,18.07
2019-02-05T18:55:38.424Z,19.60
2019-02-05T18:58:09.668Z,20.10
2019-02-05T19:00:39.949Z,22.63
2019-02-05T19:03:15.444Z,21.40
2019-02-05T19:05:38.555Z,19.67
2019-02-05T19:08:07.250Z,22.83
2019-02-05T19:10:35.748Z,22.77
2019-02-05T19:13:04.376Z,22.10
2019-02-05T19:15:40.048Z,22.90
2019-02-05T19:18:09.759Z,21.97
2019-02-05T19:20:38.177Z,22.53
2019-02-05T19:23:08.451Z,24.00
2019-02-05T19:25:50.800Z,22.70
2019-02-05T19:28:24.008Z,23.47
2019-02-05T19:30:54.046Z,21.30
2019-02-05T19:33:27.093Z,23.87
2019-02-05T19:35:52.454Z,22.93
2019-02-05T19:38:20.852Z,20.88
2019-02-05T19:40:57.177Z,19.70
2019-02-05T19:43:19.245Z,18.23
2019-02-05T19:46:04.405Z,20.47
2019-02-05T19:48:37.161Z,22.10
2019-02-05T19:51:05.851Z,24.27
2019-02-05T19:53:34.277Z,21.90
2019-02-05T19:56:03.128Z,23.67
2019-02-05T19:58:31.953Z,26.00
2019-02-05T20:01:00.367Z,23.30
2019-02-05T20:03:38.969Z,23.37
2019-02-05T20:06:01.933Z,21.23
2019-02-05T20:08:30.318Z,23.40
2019-02-05T20:10:58.714Z,24.23
2019-02-05T20:13:27.111Z,22.13
2019-02-05T20:15:55.766Z,21.93
2019-02-05T20:18:24.137Z,23.57
2019-02-05T20:20:52.523Z,21.50
2019-02-05T20:23:20.945Z,23.73
2019-02-05T20:25:49.393Z,25.03
2019-02-05T20:28:17.742Z,21.87
2019-02-05T20:30:46.241Z,23.10
2019-02-05T20:33:14.931Z,25.63
2019-02-05T20:35:43.297Z,24.37
2019-02-05T20:38:11.706Z,25.57
2019-02-05T20:40:40.158Z,25.40
2019-02-05T20:43:08.487Z,28.33
2019-02-05T20:45:36.863Z,25.43
2019-02-05T20:48:05.780Z,22.40
2019-02-05T20:50:34.673Z,22.83
2019-02-05T20:53:13.416Z,26.33
2019-02-05T20:55:33.128Z,26.40
2019-02-05T20:58:01.534Z,21.13
2019-02-05T21:00:31.769Z,26.93
2019-02-05T21:03:00.169Z,23.60
2019-02-05T21:05:28.613Z,27.03
2019-02-05T21:07:57.343Z,26.90
2019-02-05T21:10:27.679Z,28.27
2019-02-05T21:12:56.072Z,26.43
2019-02-05T21:15:24.467Z,28.40
2019-02-05T21:17:52.885Z,24.93
2019-02-05T21:20:29.357Z,29.73
2019-02-05T21:22:57.076Z,21.93
2019-02-05T21:25:25.855Z,25.90
2019-02-05T21:27:54.238Z,29.63
2019-02-05T21:30:23.679Z,25.03
2019-02-05T21:32:52.047Z,23.93
2019-02-05T21:35:20.363Z,23.80
2019-02-05T21:37:48.765Z,24.27
2019-02-05T21:40:23.600Z,23.27
2019-02-05T21:42:51.979Z,28.40
2019-02-05T21:45:32.958Z,28.23
2019-02-05T21:48:01.381Z,25.77
2019-02-05T21:50:29.763Z,27.67
2019-02-05T21:52:58.538Z,27.63
2019-02-05T21:55:27.485Z,31.27
2019-02-05T21:57:56.307Z,29.60
2019-02-05T22:00:29.052Z,28.20
2019-02-05T22:02:57.627Z,26.63
2019-02-05T22:05:26.862Z,23.57
2019-02-05T22:07:55.215Z,26.63
2019-02-05T22:10:23.794Z,28.87
2019-02-05T22:12:52.171Z,29.60
2019-02-05T22:15:21.230Z,23.73
2019-02-05T22:17:49.606Z,31.40
2019-02-05T22:20:26.281Z,27.43
2019-02-05T22:22:56.506Z,27.30
2019-02-05T22:25:29.440Z,28.73
2019-02-05T22:27:57.980Z,27.73
2019-02-05T22:30:28.549Z,26.43
2019-02-05T22:32:56.911Z,27.20
2019-02-05T22:35:25.281Z,28.93
2019-02-05T22:37:53.977Z,27.77
2019-02-05T22:40:24.750Z,29.63
2019-02-05T22:42:54.826Z,30.17
2019-02-05T22:45:25.535Z,29.43
2019-02-05T22:47:53.930Z,28.73
2019-02-05T22:50:24.335Z,27.70
2019-02-05T22:52:52.886Z,29.37
2019-02-05T22:55:21.262Z,27.50
2019-02-05T22:57:49.648Z,28.03
2019-02-05T23:00:49.906Z,29.77
2019-02-05T23:03:21.506Z,29.27
2019-02-05T23:06:18.963Z,27.47
2019-02-05T23:08:47.422Z,29.27
2019-02-05T23:11:28.112Z,31.47
2019-02-05T23:13:56.489Z,26.93
2019-02-05T23:16:24.880Z,29.27
2019-02-05T23:18:53.254Z,29.03
2019-02-05T23:21:21.666Z,26.30
2019-02-05T23:23:50.026Z,28.83
2019-02-05T23:26:18.629Z,28.83
2019-02-05T23:28:46.993Z,28.47
2019-02-05T23:31:15.383Z,27.70
2019-02-05T23:33:44.740Z,23.70
2019-02-05T23:36:13.257Z,23.83
2019-02-05T23:38:42.304Z,27.00
2019-02-05T23:41:11.013Z,27.47
2019-02-05T23:43:39.410Z,27.37
2019-02-05T23:46:07.760Z,29.33
2019-02-05T23:48:36.095Z,30.93
2019-02-05T23:51:04.650Z,29.40
2019-02-05T23:53:33.015Z,29.87
2019-02-05T23:56:01.399Z,27.13
2019-02-05T23:58:30.168Z,26.27
